createdAt,value
2018-08-21T00:01:23.813Z,101608.59
2018-08-21T00:03:52.874Z,101604.96
2018-08-21T00:06:21.335Z,101601.52
2018-08-21T00:08:49.454Z,101612.77
2018-08-21T00:11:29.045Z,101611.34
2018-08-21T00:13:57.178Z,101610.80
2018-08-21T00:16:26.649Z,101603.71
2018-08-21T00:18:56.181Z,101608.16
2018-08-21T00:21:24.818Z,101601.80
2018-08-21T00:24:08.349Z,101593.77
2018-08-21T00:26:37.053Z,101591.33
2018-08-21T00:29:05.602Z,101592.33
2018-08-21T00:31:39.574Z,101589.16
2018-08-21T00:34:07.681Z,101591.46
2018-08-21T00:36:35.802Z,101593.30
2018-08-21T00:41:48.757Z,101589.36
2018-08-21T00:44:17.122Z,101594.66
2018-08-21T00:46:45.249Z,101591.08
2018-08-21T00:49:13.970Z,101599.77
2018-08-21T00:51:42.605Z,101600.97
2018-08-21T00:54:11.174Z,101601.85
2018-08-21T00:56:39.483Z,101607.86
2018-08-21T00:59:07.658Z,101607.70
2018-08-21T01:01:36.422Z,101611.31
2018-08-21T01:04:04.874Z,101612.33
2018-08-21T01:06:33.815Z,101618.14
2018-08-21T01:09:03.218Z,101623.97
2018-08-21T01:11:31.354Z,101620.52
2018-08-21T01:13:59.462Z,101622.25
2018-08-21T01:16:28.309Z,101617.95
2018-08-21T01:18:56.470Z,101625.94
2018-08-21T01:21:25.165Z,101621.28
2018-08-21T01:23:53.294Z,101625.36
2018-08-21T01:26:21.874Z,101626.17
2018-08-21T01:28:50.325Z,101639.30
2018-08-21T01:31:18.810Z,101627.13
2018-08-21T01:33:46.945Z,101634.77
2018-08-21T01:36:15.458Z,101636.95
2018-08-21T01:38:43.922Z,101634.03
2018-08-21T01:41:12.361Z,101638.91
2018-08-21T01:43:40.827Z,101634.61
2018-08-21T01:46:09.794Z,101636.27
2018-08-21T01:48:38.243Z,101634.36
2018-08-21T01:51:06.623Z,101627.13
2018-08-21T01:53:35.277Z,101632.05
2018-08-21T01:56:03.744Z,101630.97
2018-08-21T01:58:31.914Z,101630.05
2018-08-21T02:01:00.159Z,101630.15
2018-08-21T02:03:28.541Z,101632.48
2018-08-21T02:05:56.649Z,101633.58
2018-08-21T02:08:25.033Z,101627.56
2018-08-21T02:10:53.549Z,101633.83
2018-08-21T02:13:22.426Z,101639.73
2018-08-21T02:15:51.353Z,101632.71
2018-08-21T02:18:19.806Z,101629.06
2018-08-21T02:20:48.267Z,101630.35
2018-08-21T02:23:16.390Z,101625.86
2018-08-21T02:25:44.558Z,101618.11
2018-08-21T02:28:13.006Z,101619.99
2018-08-21T02:30:41.179Z,101614.46
2018-08-21T02:33:09.742Z,101621.56
2018-08-21T02:35:47.934Z,101614.14
2018-08-21T02:38:16.276Z,101618.55
2018-08-21T02:40:44.874Z,101606.44
2018-08-21T02:43:15.470Z,101612.89
2018-08-21T02:45:43.988Z,101612.13
2018-08-21T02:48:12.436Z,101619.75
2018-08-21T02:50:41.155Z,101614.88
2018-08-21T02:53:09.281Z,101614.31
2018-08-21T02:55:37.769Z,101612.02
2018-08-21T02:58:06.550Z,101614.30
2018-08-21T03:00:34.798Z,101620.19
2018-08-21T03:03:03.513Z,101614.69
2018-08-21T03:05:32.213Z,101616.12
2018-08-21T03:08:00.902Z,101611.45
2018-08-21T03:10:29.434Z,101611.09
2018-08-21T03:12:58.107Z,101605.55
2018-08-21T03:15:26.584Z,101603.98
2018-08-21T03:17:55.238Z,101607.38
2018-08-21T03:20:23.371Z,101598.12
2018-08-21T03:22:51.511Z,101604.84
2018-08-21T03:25:20.158Z,101612.45
2018-08-21T03:27:48.653Z,101612.23
2018-08-21T03:30:16.783Z,101608.05
2018-08-21T03:32:44.907Z,101603.88
2018-08-21T03:35:13.364Z,101610.48
2018-08-21T03:37:42.126Z,101602.58
2018-08-21T03:40:10.673Z,101602.00
2018-08-21T03:42:38.992Z,101606.23
2018-08-21T03:45:07.377Z,101606.51
2018-08-21T03:47:43.071Z,101612.26
2018-08-21T03:50:12.149Z,101611.69
2018-08-21T03:52:40.826Z,101610.95
2018-08-21T03:55:10.309Z,101611.73
2018-08-21T03:57:39.237Z,101606.41
2018-08-21T04:00:14.558Z,101608.44
2018-08-21T04:02:42.997Z,101611.80
2018-08-21T04:05:11.479Z,101614.57
2018-08-21T04:07:39.734Z,101614.50
2018-08-21T04:10:08.163Z,101612.20
2018-08-21T04:12:36.571Z,101616.91
2018-08-21T04:15:05.054Z,101617.54
2018-08-21T04:17:33.194Z,101619.68
2018-08-21T04:20:02.195Z,101619.47
2018-08-21T04:22:33.241Z,101629.14
2018-08-21T04:25:02.007Z,101618.66
2018-08-21T04:27:33.194Z,101623.86
2018-08-21T04:32:37.227Z,101632.32
2018-08-21T04:35:05.816Z,101634.67
2018-08-21T04:37:34.317Z,101631.59
2018-08-21T04:40:02.868Z,101625.78
2018-08-21T04:42:33.277Z,101642.63
2018-08-21T04:45:04.297Z,101639.39
2018-08-21T04:47:36.178Z,101640.75
2018-08-21T04:50:05.507Z,101641.27
2018-08-21T04:52:34.469Z,101647.92
2018-08-21T04:55:02.962Z,101650.64
2018-08-21T04:57:31.454Z,101654.09
2018-08-21T05:00:01.840Z,101647.88
2018-08-21T05:02:41.937Z,101648.83
2018-08-21T05:05:10.841Z,101652.70
2018-08-21T05:10:08.756Z,101650.90
2018-08-21T05:12:39.311Z,101655.78
2018-08-21T05:15:07.942Z,101655.57
2018-08-21T05:17:51.269Z,101662.37
2018-08-21T05:20:20.155Z,101654.03
2018-08-21T05:22:48.734Z,101663.66
2018-08-21T05:25:17.487Z,101665.23
2018-08-21T05:27:51.423Z,101665.43
2018-08-21T05:30:20.426Z,101667.52
2018-08-21T05:32:50.667Z,101670.77
2018-08-21T05:35:27.326Z,101670.09
2018-08-21T05:37:56.447Z,101678.11
2018-08-21T05:40:24.814Z,101681.02
2018-08-21T05:42:52.983Z,101684.27
2018-08-21T05:45:21.489Z,101686.55
2018-08-21T05:47:50.227Z,101689.23
2018-08-21T05:50:19.137Z,101685.41
2018-08-21T05:52:47.486Z,101686.45
2018-08-21T05:55:15.996Z,101686.77
2018-08-21T05:57:45.325Z,101694.97
2018-08-21T06:01:32.236Z,101687.63
2018-08-21T06:04:00.937Z,101701.02
2018-08-21T06:06:29.894Z,101703.98
2018-08-21T06:08:58.351Z,101701.37
2018-08-21T06:11:26.755Z,101703.91
2018-08-21T06:13:55.973Z,101712.01
2018-08-21T06:16:24.794Z,101716.14
2018-08-21T06:18:53.936Z,101716.69
2018-08-21T06:21:22.310Z,101708.31
2018-08-21T06:23:50.918Z,101712.67
2018-08-21T06:26:19.949Z,101717.87
2018-08-21T06:28:48.397Z,101715.21
2018-08-21T06:31:16.878Z,101713.47
2018-08-21T06:33:45.830Z,101718.06
2018-08-21T06:36:14.467Z,101720.85
2018-08-21T06:38:43.379Z,101722.24
2018-08-21T06:41:11.544Z,101715.92
2018-08-21T06:43:49.903Z,101722.41
2018-08-21T06:46:18.425Z,101723.40
2018-08-21T06:48:47.215Z,101726.33
2018-08-21T06:51:16.688Z,101728.32
2018-08-21T06:53:45.103Z,101725.78
2018-08-21T06:56:13.898Z,101723.18
2018-08-21T06:58:42.359Z,101725.86
2018-08-21T07:01:11.202Z,101724.91
2018-08-21T07:03:39.750Z,101720.73
2018-08-21T07:06:07.913Z,101718.29
2018-08-21T07:08:44.352Z,101718.88
2018-08-21T07:11:18.648Z,101727.16
2018-08-21T07:13:46.998Z,101724.13
2018-08-21T07:16:16.258Z,101728.31
2018-08-21T07:18:44.677Z,101724.21
2018-08-21T07:21:12.809Z,101731.06
2018-08-21T07:23:41.336Z,101730.93
2018-08-21T07:26:10.126Z,101735.01
2018-08-21T07:28:38.537Z,101737.02
2018-08-21T07:31:07.002Z,101738.11
2018-08-21T07:33:35.458Z,101739.05
2018-08-21T07:36:03.948Z,101738.40
2018-08-21T07:38:42.690Z,101743.23
2018-08-21T07:43:38.078Z,101741.86
2018-08-21T07:46:10.878Z,101745.11
2018-08-21T07:48:44.985Z,101742.91
2018-08-21T07:51:13.763Z,101749.94
2018-08-21T07:53:42.753Z,101745.47
2018-08-21T07:56:12.870Z,101756.98
2018-08-21T07:58:41.950Z,101747.21
2018-08-21T08:01:10.340Z,101748.79
2018-08-21T08:03:38.767Z,101745.88
2018-08-21T08:06:07.743Z,101757.42
2018-08-21T08:08:48.976Z,101753.30
2018-08-21T08:11:17.658Z,101756.17
2018-08-21T08:13:46.061Z,101754.97
2018-08-21T08:16:15.082Z,101754.52
2018-08-21T08:18:48.143Z,101753.64
2018-08-21T08:21:22.355Z,101755.73
2018-08-21T08:23:51.779Z,101746.27
2018-08-21T08:26:20.518Z,101750.89
2018-08-21T08:28:56.073Z,101749.19
2018-08-21T08:31:25.142Z,101754.16
2018-08-21T08:33:53.610Z,101748.11
2018-08-21T08:36:21.942Z,101747.09
2018-08-21T08:38:50.323Z,101748.55
2018-08-21T08:41:24.220Z,101745.84
2018-08-21T08:43:52.783Z,101744.18
2018-08-21T08:46:22.098Z,101747.12
2018-08-21T08:48:58.714Z,101744.79
2018-08-21T08:51:27.522Z,101740.58
2018-08-21T08:53:56.401Z,101737.11
2018-08-21T08:56:26.675Z,101740.89
2018-08-21T08:58:55.142Z,101737.71
2018-08-21T09:01:23.622Z,101735.91
2018-08-21T09:03:52.322Z,101731.77
2018-08-21T09:06:27.878Z,101737.80
2018-08-21T09:08:56.350Z,101732.67
2018-08-21T09:11:25.206Z,101730.30
2018-08-21T09:13:53.614Z,101729.09
2018-08-21T09:16:22.350Z,101732.09
2018-08-21T09:18:51.015Z,101730.56
2018-08-21T09:21:19.139Z,101730.17
2018-08-21T09:23:47.399Z,101735.48
2018-08-21T09:26:24.109Z,101733.94
2018-08-21T09:28:52.686Z,101727.37
2018-08-21T09:31:21.206Z,101730.00
2018-08-21T09:33:49.640Z,101724.92
2018-08-21T09:36:17.979Z,101721.27
2018-08-21T09:38:46.187Z,101729.03
2018-08-21T09:41:15.718Z,101723.05
2018-08-21T09:43:44.082Z,101727.31
2018-08-21T09:46:12.379Z,101723.14
2018-08-21T09:48:40.907Z,101719.41
2018-08-21T09:51:09.959Z,101716.94
2018-08-21T09:53:38.397Z,101709.30
2018-08-21T09:56:06.807Z,101708.64
2018-08-21T09:58:34.958Z,101705.83
2018-08-21T10:01:08.346Z,101708.14
2018-08-21T10:08:45.694Z,101708.64
2018-08-21T10:11:13.947Z,101703.11
2018-08-21T10:13:42.177Z,101705.27
2018-08-21T10:16:10.611Z,101703.44
2018-08-21T10:18:38.742Z,101697.52
2018-08-21T10:21:11.260Z,101694.47
2018-08-21T10:23:44.835Z,101691.76
2018-08-21T10:26:38.234Z,101693.86
2018-08-21T10:29:06.370Z,101694.45
2018-08-21T10:31:37.961Z,101689.38
2018-08-21T10:34:07.074Z,101688.16
2018-08-21T10:36:35.958Z,101684.17
2018-08-21T10:39:06.890Z,101682.62
2018-08-21T10:41:35.370Z,101688.37
2018-08-21T10:44:04.073Z,101679.22
2018-08-21T10:46:32.171Z,101680.26
2018-08-21T10:49:00.639Z,101681.58
2018-08-21T10:51:28.746Z,101677.56
2018-08-21T10:53:57.217Z,101675.79
2018-08-21T10:56:25.633Z,101674.80
2018-08-21T10:58:54.079Z,101676.81
2018-08-21T11:01:22.533Z,101665.57
2018-08-21T11:03:52.186Z,101666.02
2018-08-21T11:06:20.834Z,101664.66
2018-08-21T11:08:49.524Z,101671.85
2018-08-21T11:11:18.006Z,101664.82
2018-08-21T11:14:00.633Z,101663.69
2018-08-21T11:16:30.394Z,101665.66
2018-08-21T11:19:00.019Z,101660.11
2018-08-21T11:21:28.778Z,101659.27
2018-08-21T11:23:57.430Z,101659.56
2018-08-21T11:26:26.107Z,101663.73
2018-08-21T11:28:55.102Z,101653.44
2018-08-21T11:31:23.901Z,101655.50
2018-08-21T11:33:52.379Z,101651.66
2018-08-21T11:36:21.159Z,101649.84
2018-08-21T11:38:49.326Z,101651.11
2018-08-21T11:41:18.140Z,101646.29
2018-08-21T11:43:46.470Z,101639.52
2018-08-21T11:46:14.917Z,101638.28
2018-08-21T11:48:43.593Z,101634.90
2018-08-21T11:51:12.267Z,101639.21
2018-08-21T11:53:40.722Z,101634.25
2018-08-21T11:56:09.194Z,101635.77
2018-08-21T11:58:37.357Z,101624.16
2018-08-21T12:01:05.501Z,101632.73
2018-08-21T12:03:34.116Z,101634.33
2018-08-21T12:06:02.629Z,101634.78
2018-08-21T12:08:31.077Z,101630.16
2018-08-21T12:10:59.222Z,101631.62
2018-08-21T12:13:27.338Z,101629.98
2018-08-21T12:15:55.481Z,101618.28
2018-08-21T12:18:24.145Z,101622.42
2018-08-21T12:20:52.661Z,101622.94
2018-08-21T12:23:21.122Z,101623.84
2018-08-21T12:25:49.254Z,101619.42
2018-08-21T12:28:17.403Z,101615.27
2018-08-21T12:30:45.887Z,101616.13
2018-08-21T12:33:19.990Z,101610.66
2018-08-21T12:35:48.126Z,101611.81
2018-08-21T12:38:16.696Z,101614.80
2018-08-21T12:40:45.350Z,101611.25
2018-08-21T12:43:13.955Z,101600.23
2018-08-21T12:45:54.414Z,101600.08
2018-08-21T12:48:23.073Z,101590.39
2018-08-21T12:50:51.529Z,101595.84
2018-08-21T12:53:19.971Z,101592.70
2018-08-21T12:55:48.558Z,101598.80
2018-08-21T12:58:16.670Z,101596.13
2018-08-21T13:00:45.115Z,101595.85
2018-08-21T13:03:13.583Z,101596.23
2018-08-21T13:05:42.050Z,101592.05
2018-08-21T13:08:10.514Z,101587.49
2018-08-21T13:10:39.051Z,101583.70
2018-08-21T13:13:07.705Z,101582.15
2018-08-21T13:15:35.853Z,101579.93
2018-08-21T13:18:04.814Z,101573.31
2018-08-21T13:20:33.291Z,101580.75
2018-08-21T13:23:01.757Z,101572.69
2018-08-21T13:25:30.321Z,101570.86
2018-08-21T13:27:58.439Z,101570.85
2018-08-21T13:30:26.919Z,101567.97
2018-08-21T13:32:55.799Z,101565.64
2018-08-21T13:35:23.930Z,101570.61
2018-08-21T13:37:52.386Z,101564.97
2018-08-21T13:40:20.850Z,101559.14
2018-08-21T13:42:49.290Z,101552.36
2018-08-21T13:45:17.415Z,101554.50
2018-08-21T13:47:45.578Z,101554.83
2018-08-21T13:50:13.918Z,101558.30
2018-08-21T13:52:42.025Z,101553.99
2018-08-21T13:55:10.696Z,101555.99
2018-08-21T13:57:39.171Z,101550.70
2018-08-21T14:00:07.317Z,101555.37
2018-08-21T14:02:35.824Z,101554.91
2018-08-21T14:05:04.563Z,101549.64
2018-08-21T14:07:42.446Z,101554.06
2018-08-21T14:10:11.014Z,101553.41
2018-08-21T14:12:39.914Z,101547.73
2018-08-21T14:15:11.302Z,101547.66
2018-08-21T14:17:39.602Z,101545.47
2018-08-21T14:20:08.425Z,101553.09
2018-08-21T14:22:36.942Z,101553.52
2018-08-21T14:25:05.430Z,101549.86
2018-08-21T14:27:33.862Z,101549.70
2018-08-21T14:30:02.553Z,101548.99
2018-08-21T14:32:31.544Z,101542.08
2018-08-21T14:35:00.936Z,101538.79
2018-08-21T14:37:29.569Z,101535.44
2018-08-21T14:39:59.208Z,101540.65
2018-08-21T14:42:32.831Z,101539.97
2018-08-21T14:45:02.374Z,101537.98
2018-08-21T14:47:31.373Z,101543.62
2018-08-21T14:50:00.067Z,101534.38
2018-08-21T14:52:28.700Z,101541.28
2018-08-21T14:54:57.579Z,101538.27
2018-08-21T14:57:32.807Z,101535.25
2018-08-21T15:00:01.732Z,101535.21
2018-08-21T15:02:37.937Z,101534.53
2018-08-21T15:05:07.334Z,101528.37
2018-08-21T15:07:36.762Z,101533.78
2018-08-21T15:10:05.122Z,101528.22
2018-08-21T15:12:33.747Z,101524.92
2018-08-21T15:15:02.049Z,101520.97
2018-08-21T15:17:30.591Z,101522.80
2018-08-21T15:19:59.263Z,101520.31
2018-08-21T15:22:27.856Z,101519.55
2018-08-21T15:24:56.709Z,101512.77
2018-08-21T15:27:25.975Z,101503.21
2018-08-21T15:29:54.078Z,101507.55
2018-08-21T15:32:22.621Z,101511.92
2018-08-21T15:34:51.074Z,101508.16
2018-08-21T15:37:19.201Z,101504.52
2018-08-21T15:39:47.463Z,101497.56
2018-08-21T15:42:15.627Z,101496.70
2018-08-21T15:44:43.734Z,101500.48
2018-08-21T15:47:12.174Z,101494.13
2018-08-21T15:49:40.300Z,101494.13
2018-08-21T15:52:08.954Z,101496.23
2018-08-21T15:54:37.413Z,101496.23
2018-08-21T15:57:06.066Z,101494.63
2018-08-21T15:59:34.514Z,101499.69
2018-08-21T16:02:02.993Z,101493.41
2018-08-21T16:04:31.506Z,101493.40
2018-08-21T16:06:59.639Z,101491.94
2018-08-21T16:09:28.097Z,101487.64
2018-08-21T16:11:56.736Z,101484.52
2018-08-21T16:14:25.385Z,101488.26
2018-08-21T16:16:53.830Z,101481.97
2018-08-21T16:19:22.577Z,101484.75
2018-08-21T16:21:51.013Z,101479.98
2018-08-21T16:24:19.454Z,101477.95
2018-08-21T16:26:47.578Z,101474.06
2018-08-21T16:29:16.014Z,101468.52
2018-08-21T16:31:44.657Z,101471.80
2018-08-21T16:34:13.087Z,101470.09
2018-08-21T16:36:41.527Z,101466.63
2018-08-21T16:39:12.030Z,101466.60
2018-08-21T16:41:40.618Z,101465.27
2018-08-21T16:44:09.411Z,101464.19
2018-08-21T16:46:38.044Z,101463.64
2018-08-21T16:49:06.882Z,101465.56
2018-08-21T16:51:35.448Z,101460.75
2018-08-21T16:54:04.308Z,101451.55
2018-08-21T16:56:32.738Z,101460.98
2018-08-21T16:59:01.178Z,101456.36
2018-08-21T17:01:29.654Z,101453.27
2018-08-21T17:03:57.758Z,101456.25
2018-08-21T17:06:25.861Z,101454.33
2018-08-21T17:08:54.305Z,101457.55
2018-08-21T17:11:22.761Z,101449.01
2018-08-21T17:13:51.445Z,101453.37
2018-08-21T17:16:20.148Z,101448.38
2018-08-21T17:18:48.293Z,101446.25
2018-08-21T17:21:16.717Z,101448.05
2018-08-21T17:23:45.236Z,101448.27
2018-08-21T17:26:13.666Z,101447.30
2018-08-21T17:28:42.101Z,101443.88
2018-08-21T17:31:10.543Z,101447.94
2018-08-21T17:33:39.005Z,101448.70
2018-08-21T17:36:07.437Z,101447.95
2018-08-21T17:38:35.549Z,101446.34
2018-08-21T17:41:03.755Z,101443.84
2018-08-21T17:43:32.202Z,101444.47
2018-08-21T17:46:00.663Z,101445.42
2018-08-21T17:48:28.893Z,101435.20
2018-08-21T17:50:57.537Z,101435.95
2018-08-21T17:53:25.672Z,101438.69
2018-08-21T17:55:54.110Z,101443.69
2018-08-21T17:58:22.757Z,101438.02
2018-08-21T18:00:51.205Z,101440.11
2018-08-21T18:03:19.648Z,101441.86
2018-08-21T18:05:48.295Z,101435.78
2018-08-21T18:08:17.029Z,101436.58
2018-08-21T18:10:45.156Z,101436.69
2018-08-21T18:13:13.607Z,101432.06
2018-08-21T18:15:42.173Z,101430.97
2018-08-21T18:18:10.722Z,101435.51
2018-08-21T18:20:39.159Z,101442.05
2018-08-21T18:23:07.633Z,101434.21
2018-08-21T18:25:36.174Z,101438.13
2018-08-21T18:28:04.298Z,101439.58
2018-08-21T18:30:32.742Z,101438.80
2018-08-21T18:33:00.870Z,101432.38
2018-08-21T18:35:29.315Z,101439.59
2018-08-21T18:37:57.958Z,101442.97
2018-08-21T18:40:26.621Z,101439.09
2018-08-21T18:42:55.062Z,101439.70
2018-08-21T18:45:23.513Z,101440.51
2018-08-21T18:47:51.948Z,101444.05
2018-08-21T18:50:20.330Z,101438.28
2018-08-21T18:52:48.926Z,101443.20
2018-08-21T18:55:17.034Z,101444.84
2018-08-21T18:57:45.390Z,101442.56
2018-08-21T19:00:19.349Z,101453.53
2018-08-21T19:02:47.821Z,101452.41
2018-08-21T19:05:15.994Z,101458.52
2018-08-21T19:07:44.363Z,101454.52
2018-08-21T19:10:13.026Z,101460.70
2018-08-21T19:12:41.154Z,101457.66
2018-08-21T19:15:09.609Z,101458.40
2018-08-21T19:17:38.073Z,101463.45
2018-08-21T19:20:06.658Z,101464.16
2018-08-21T19:22:34.766Z,101466.27
2018-08-21T19:25:03.220Z,101471.39
2018-08-21T19:27:31.843Z,101471.30
2018-08-21T19:29:59.949Z,101472.46
2018-08-21T19:32:28.077Z,101468.77
2018-08-21T19:34:56.725Z,101475.41
2018-08-21T19:37:25.165Z,101468.08
2018-08-21T19:39:53.665Z,101483.00
2018-08-21T19:42:22.128Z,101480.88
2018-08-21T19:44:50.271Z,101479.03
2018-08-21T19:47:18.719Z,101481.98
2018-08-21T19:49:47.349Z,101478.70
2018-08-21T19:52:15.806Z,101476.28
2018-08-21T19:54:44.121Z,101476.28
2018-08-21T19:57:12.229Z,101479.09
2018-08-21T19:59:40.362Z,101477.38
2018-08-21T20:02:08.853Z,101486.32
2018-08-21T20:04:37.297Z,101477.52
2018-08-21T20:07:05.822Z,101479.59
2018-08-21T20:09:34.275Z,101474.38
2018-08-21T20:12:02.388Z,101473.77
2018-08-21T20:14:31.022Z,101475.52
2018-08-21T20:16:59.137Z,101473.80
2018-08-21T20:19:27.602Z,101480.60
2018-08-21T20:21:56.042Z,101479.95
2018-08-21T20:24:24.142Z,101474.11
2018-08-21T20:26:52.258Z,101472.79
2018-08-21T20:29:20.361Z,101475.62
2018-08-21T20:31:48.814Z,101472.25
2018-08-21T20:34:17.106Z,101476.77
2018-08-21T20:36:45.607Z,101468.38
2018-08-21T20:39:17.757Z,101478.17
2018-08-21T20:41:46.237Z,101469.61
2018-08-21T20:44:14.658Z,101462.05
2018-08-21T20:46:42.789Z,101466.54
2018-08-21T20:49:11.249Z,101462.80
2018-08-21T20:51:39.695Z,101458.89
2018-08-21T20:54:08.361Z,101466.12
2018-08-21T20:56:36.489Z,101470.13
2018-08-21T20:59:04.582Z,101463.51
2018-08-21T21:01:32.940Z,101465.08
2018-08-21T21:04:01.057Z,101466.47
2018-08-21T21:06:29.509Z,101467.90
2018-08-21T21:08:57.734Z,101476.25
2018-08-21T21:11:26.440Z,101471.31
2018-08-21T21:14:06.109Z,101474.66
2018-08-21T21:16:45.675Z,101475.56
2018-08-21T21:19:25.157Z,101478.52
2018-08-21T21:22:04.793Z,101471.67
2018-08-21T21:24:37.416Z,101467.41
2018-08-21T21:27:06.028Z,101467.06
2018-08-21T21:29:34.122Z,101466.91
2018-08-21T21:32:02.564Z,101472.74
2018-08-21T21:34:30.898Z,101462.09
2018-08-21T21:36:59.022Z,101473.13
2018-08-21T21:39:27.182Z,101473.30
2018-08-21T21:41:55.636Z,101478.11
2018-08-21T21:44:24.087Z,101470.22
2018-08-21T21:46:52.538Z,101473.11
2018-08-21T21:49:21.010Z,101472.27
2018-08-21T21:51:49.441Z,101464.56
2018-08-21T21:54:17.896Z,101473.33
2018-08-21T21:56:46.481Z,101475.91
2018-08-21T21:59:14.590Z,101477.78
2018-08-21T22:01:43.077Z,101477.13
2018-08-21T22:04:11.717Z,101482.27
2018-08-21T22:06:40.166Z,101483.12
2018-08-21T22:09:09.515Z,101486.19
2018-08-21T22:11:38.273Z,101489.78
2018-08-21T22:14:06.889Z,101489.09
2018-08-21T22:16:35.154Z,101490.13
2018-08-21T22:19:03.242Z,101485.13
2018-08-21T22:21:31.551Z,101484.95
2018-08-21T22:23:59.680Z,101485.81
2018-08-21T22:26:27.823Z,101486.89
2018-08-21T22:28:55.934Z,101486.23
2018-08-21T22:31:24.278Z,101486.43
2018-08-21T22:33:52.647Z,101482.82
2018-08-21T22:36:21.101Z,101486.95
2018-08-21T22:38:49.229Z,101486.95
2018-08-21T22:41:17.340Z,101493.84
2018-08-21T22:43:47.070Z,101493.44
2018-08-21T22:46:15.182Z,101489.16
2018-08-21T22:48:43.359Z,101485.17
2018-08-21T22:51:11.451Z,101486.69
2018-08-21T22:53:39.577Z,101492.61
2018-08-21T22:56:07.678Z,101489.50
2018-08-21T22:58:36.113Z,101488.80
2018-08-21T23:01:04.221Z,101483.64
2018-08-21T23:03:32.881Z,101487.72
2018-08-21T23:06:01.342Z,101488.03
2018-08-21T23:08:29.524Z,101492.84
2018-08-21T23:10:57.653Z,101484.94
2018-08-21T23:13:26.110Z,101487.99
2018-08-21T23:15:54.652Z,101487.95
2018-08-21T23:18:22.880Z,101487.08
2018-08-21T23:20:51.024Z,101488.27
2018-08-21T23:23:19.460Z,101488.75
2018-08-21T23:25:47.910Z,101486.33
2018-08-21T23:28:16.372Z,101484.78
2018-08-21T23:30:44.803Z,101477.58
2018-08-21T23:33:13.322Z,101487.25
2018-08-21T23:35:41.434Z,101483.95
2018-08-21T23:38:09.542Z,101479.97
2018-08-21T23:40:37.641Z,101478.06
2018-08-21T23:43:06.466Z,101479.42
2018-08-21T23:45:34.593Z,101478.89
2018-08-21T23:48:02.711Z,101477.13
2018-08-21T23:50:30.830Z,101470.05
2018-08-21T23:52:59.293Z,101465.17
2018-08-21T23:55:27.734Z,101465.64
2018-08-21T23:57:56.365Z,101464.09
